Time;durP1;ratioP1;P1;durP2;ratioP2;P2;SDS_P1;SDS_P2;PMS_P1;PMS_P2;Temp;Humidity;BMP_temperature;BMP_pressure;BME280_temperature;BME280_humidity;BME280_pressure;Samples;Min_cycle;Max_cycle;Signal;HPM_P1;HPM_P2
2022/05/01 00:01:40;;;;;;;8.68;5.85;;;;;;;3.13;50.57;102502.72;5019374;28;20042;-68
2022/05/01 00:04:05;;;;;;;14.32;6.35;;;;;;;3.15;50.29;102501.03;5020793;28;20090;-67
2022/05/01 00:06:33;;;;;;;7.00;4.93;;;;;;;3.03;50.26;102505.16;5021769;28;20491;-74
2022/05/01 00:09:00;;;;;;;9.52;5.25;;;;;;;2.89;50.58;102504.88;4990474;28;20193;-75
2022/05/01 00:11:26;;;;;;;8.07;5.03;;;;;;;2.80;50.59;102503.03;5002947;28;20049;-74
2022/05/01 00:13:52;;;;;;;9.80;5.28;;;;;;;2.89;50.83;102504.88;5001787;28;20045;-74
2022/05/01 00:16:18;;;;;;;11.27;6.15;;;;;;;2.94;50.92;102503.28;4999105;28;20045;-74
2022/05/01 00:18:45;;;;;;;9.23;6.32;;;;;;;2.87;50.60;102504.00;4987216;28;20498;-74
2022/05/01 00:21:10;;;;;;;12.23;6.50;;;;;;;2.76;50.82;102499.50;5003864;28;20564;-74
2022/05/01 00:23:36;;;;;;;10.20;6.15;;;;;;;2.84;50.92;102494.47;5005324;28;20045;-74
2022/05/01 00:26:04;;;;;;;9.05;5.50;;;;;;;2.89;50.85;102497.13;5000075;28;20061;-74
2022/05/01 00:28:32;;;;;;;9.65;6.15;;;;;;;2.88;50.77;102503.16;4995222;28;20033;-69
2022/05/01 00:30:58;;;;;;;11.25;5.80;;;;;;;2.87;50.66;102496.25;5017689;28;20053;-69
2022/05/01 00:36:26;;;;;;;9.18;5.55;;;;;;;2.74;50.54;102498.59;5019845;28;20077;-73
2022/05/01 00:38:56;;;;;;;9.88;6.25;;;;;;;2.65;50.75;102501.00;5018400;28;20637;-72
2022/05/01 00:41:23;;;;;;;9.00;6.15;;;;;;;2.77;50.72;102497.78;5020341;28;20052;-72
2022/05/01 00:44:09;;;;;;;11.02;6.45;;;;;;;2.80;50.52;102492.69;5001234;28;20498;-73
2022/05/01 00:46:37;;;;;;;10.95;6.93;;;;;;;2.90;50.51;102491.16;5018981;28;20556;-73
2022/05/01 00:49:05;;;;;;;9.15;5.75;;;;;;;2.86;50.11;102494.50;5019649;28;20392;-72
2022/05/01 00:52:04;;;;;;;10.85;6.70;;;;;;;2.76;50.38;102490.91;5002746;28;20154;-72
2022/05/01 00:54:31;;;;;;;15.45;8.65;;;;;;;2.67;50.43;102495.91;4982076;28;20128;-71
2022/05/01 00:57:00;;;;;;;11.75;7.22;;;;;;;2.66;50.57;102489.84;4999137;28;20037;-72
2022/05/01 00:59:26;;;;;;;13.75;7.72;;;;;;;2.77;50.16;102490.91;5020072;28;20038;-72
2022/05/01 01:01:52;;;;;;;11.52;6.82;;;;;;;2.83;50.15;102491.88;4999500;28;20046;-66
2022/05/01 01:04:18;;;;;;;11.25;7.22;;;;;;;2.85;50.22;102497.94;5021058;28;20048;-76
2022/05/01 01:06:43;;;;;;;13.43;8.00;;;;;;;2.86;50.10;102495.38;4997380;28;20053;-74
2022/05/01 01:09:10;;;;;;;16.00;8.35;;;;;;;2.74;50.34;102490.00;4996290;28;20046;-74
2022/05/01 01:11:37;;;;;;;12.30;7.25;;;;;;;2.69;50.41;102494.19;5002452;28;20487;-75
2022/05/01 01:14:05;;;;;;;14.77;9.05;;;;;;;2.79;50.09;102492.66;5019192;28;20531;-75
2022/05/01 01:16:32;;;;;;;16.45;8.60;;;;;;;2.82;50.55;102490.13;5001345;28;20143;-75
2022/05/01 01:18:58;;;;;;;13.02;7.90;;;;;;;2.77;50.31;102496.06;4994382;28;20072;-75
2022/05/01 01:21:23;;;;;;;12.32;7.07;;;;;;;2.80;50.24;102487.53;5019092;28;20124;-74
2022/05/01 01:23:52;;;;;;;12.57;8.30;;;;;;;2.79;50.50;102482.34;5019154;28;20125;-66
2022/05/01 01:26:17;;;;;;;16.13;9.15;;;;;;;2.84;50.51;102488.44;5018578;28;20091;-71
2022/05/01 01:28:43;;;;;;;13.48;8.18;;;;;;;2.75;50.28;102489.13;5017927;28;20445;-72
2022/05/01 01:33:58;;;;;;;15.38;7.97;;;;;;;2.75;49.98;102494.31;5017489;28;20064;-71
2022/05/01 01:36:28;;;;;;;11.27;7.20;;;;;;;2.68;49.92;102483.00;5000790;28;20068;-72
2022/05/01 01:38:54;;;;;;;18.58;8.82;;;;;;;2.70;50.02;102490.78;4997300;28;20048;-72
2022/05/01 01:41:26;;;;;;;13.43;8.23;;;;;;;2.56;50.19;102485.34;4992797;28;20049;-72
2022/05/01 01:43:51;;;;;;;;;;;;;;;2.67;50.26;102490.72;5022024;28;20053;-72
2022/05/01 01:46:17;;;;;;;13.90;7.88;;;;;;;2.58;50.30;102488.84;5019299;28;19924;-73
2022/05/01 01:48:46;;;;;;;11.40;7.85;;;;;;;2.71;49.72;102490.81;5002246;28;20036;-71
2022/05/01 01:51:12;;;;;;;18.58;8.70;;;;;;;2.46;49.88;102492.03;5000774;28;20037;-69
2022/05/01 01:53:38;;;;;;;13.73;7.20;;;;;;;2.31;49.89;102494.28;4983619;28;20030;-69
2022/05/01 01:56:07;;;;;;;11.73;6.60;;;;;;;2.33;50.10;102488.34;5017234;28;20432;-68
2022/05/01 01:58:33;;;;;;;13.75;8.48;;;;;;;2.25;50.10;102489.03;5018685;28;20036;-68
2022/05/01 02:00:59;;;;;;;15.68;8.13;;;;;;;2.23;50.28;102489.00;4998721;28;20428;-69
2022/05/01 02:03:26;;;;;;;15.93;8.73;;;;;;;2.27;50.19;102485.66;5019717;28;20497;-69
2022/05/01 02:05:51;;;;;;;12.55;7.97;;;;;;;2.35;49.95;102488.38;4999156;28;20056;-72
2022/05/01 02:08:17;;;;;;;15.70;7.70;;;;;;;2.29;50.10;102486.53;4995728;28;20030;-70
2022/05/01 02:10:44;;;;;;;14.55;7.80;;;;;;;2.19;50.05;102487.19;5015763;28;20045;-70
2022/05/01 02:13:10;;;;;;;17.20;7.72;;;;;;;2.29;50.06;102483.97;5017496;28;20026;-71
2022/05/01 02:15:36;;;;;;;12.50;8.00;;;;;;;2.19;49.94;102484.59;4999289;28;20510;-68
2022/05/01 02:18:03;;;;;;;18.42;8.40;;;;;;;1.99;50.20;102478.16;4999340;28;20394;-68
2022/05/01 02:23:19;;;;;;;14.95;7.72;;;;;;;1.89;50.40;102477.97;5000865;28;20405;-68
2022/05/01 02:25:45;;;;;;;13.73;7.32;;;;;;;1.76;50.68;102481.09;4985013;28;20063;-68
2022/05/01 02:28:13;;;;;;;9.68;6.47;;;;;;;1.70;50.76;102476.66;5021102;28;20037;-67
2022/05/01 02:30:39;;;;;;;9.65;5.85;;;;;;;1.78;50.47;102471.69;5020229;28;20045;-69
2022/05/01 02:33:08;;;;;;;14.27;6.82;;;;;;;1.72;50.75;102475.00;5021954;28;20453;-69
2022/05/01 02:35:37;;;;;;;13.63;7.43;;;;;;;1.51;50.73;102477.09;5021224;28;20136;-69
2022/05/01 02:38:04;;;;;;;12.10;6.22;;;;;;;1.58;50.72;102475.53;5003819;28;20021;-70
2022/05/01 02:40:30;;;;;;;10.18;5.93;;;;;;;1.43;50.85;102469.19;5004822;28;20041;-68
2022/05/01 02:42:59;;;;;;;8.80;6.20;;;;;;;1.39;50.84;102469.91;5019175;28;20060;-68
2022/05/01 02:45:28;;;;;;;7.95;5.35;;;;;;;1.34;50.70;102474.06;5021706;28;20138;-69
2022/05/01 02:47:54;;;;;;;8.20;5.35;;;;;;;1.21;50.81;102479.75;4988674;28;20135;-70
2022/05/01 02:50:21;;;;;;;9.98;5.22;;;;;;;1.11;51.24;102469.25;5004520;28;20136;-68
2022/05/01 02:52:47;;;;;;;10.02;5.90;;;;;;;1.11;51.03;102471.81;5001412;28;20486;-67
2022/05/01 02:55:14;;;;;;;16.05;6.13;;;;;;;1.14;50.79;102473.59;5021794;28;20095;-71
2022/05/01 02:57:39;;;;;;;7.40;5.57;;;;;;;1.14;51.27;102468.44;5004256;28;20497;-71
2022/05/01 03:00:07;;;;;;;12.77;6.70;;;;;;;1.15;51.00;102474.44;5002067;28;20045;-70
2022/05/01 03:02:33;;;;;;;10.27;5.57;;;;;;;1.21;51.18;102474.63;4997378;28;20021;-66
2022/05/01 03:04:59;;;;;;;9.43;6.30;;;;;;;1.26;51.13;102473.91;5019283;28;20068;-71
2022/05/01 03:07:25;;;;;;;10.55;5.82;;;;;;;1.19;50.88;102465.97;5004869;28;20128;-71
2022/05/01 03:09:52;;;;;;;9.27;5.75;;;;;;;1.20;50.70;102467.75;4993631;28;20125;-70
2022/05/01 03:12:18;;;;;;;9.15;5.40;;;;;;;1.24;50.83;102461.84;5021158;28;20037;-72
2022/05/01 03:14:45;;;;;;;8.75;5.53;;;;;;;1.26;51.02;102465.28;5002309;28;20045;-70
2022/05/01 03:17:10;;;;;;;8.93;5.45;;;;;;;1.29;50.91;102458.50;5004035;28;20120;-67
2022/05/01 03:22:19;;;;;;;11.32;5.63;;;;;;;1.43;50.61;102460.59;5023031;28;20748;-72
2022/05/01 03:24:45;;;;;;;7.72;5.18;;;;;;;1.51;50.39;102465.09;5001645;28;20108;-69
2022/05/01 03:27:11;;;;;;;8.05;4.93;;;;;;;1.68;50.31;102469.75;5020258;28;20330;-70
2022/05/01 03:29:37;;;;;;;9.35;5.88;;;;;;;1.77;50.59;102461.34;4995264;28;20021;-69
2022/05/01 03:32:07;;;;;;;7.10;5.63;;;;;;;2.01;50.28;102461.88;5019520;28;20493;-68
2022/05/01 03:34:39;;;;;;;9.68;6.43;;;;;;;1.96;49.78;102462.63;5018718;28;20025;-68
2022/05/01 03:37:08;;;;;;;7.70;5.22;;;;;;;1.88;49.80;102458.16;4987615;28;20025;-68
2022/05/01 03:39:36;;;;;;;9.23;5.85;;;;;;;1.80;49.75;102452.00;4985354;28;20175;-68
2022/05/01 03:42:04;;;;;;;12.70;5.97;;;;;;;1.61;49.88;102450.69;5000725;28;20144;-69
2022/05/01 03:44:29;;;;;;;11.13;5.97;;;;;;;1.54;50.34;102459.13;5017432;28;20593;-70
2022/05/01 03:46:55;;;;;;;9.18;6.35;;;;;;;1.52;50.16;102459.06;5001066;28;20255;-70
2022/05/01 03:49:22;;;;;;;11.07;6.30;;;;;;;1.35;50.23;102452.66;5018949;28;20036;-69
2022/05/01 03:51:48;;;;;;;8.90;5.95;;;;;;;1.36;50.30;102453.53;5001616;28;20494;-68
2022/05/01 03:54:13;;;;;;;9.15;5.70;;;;;;;1.44;50.45;102458.06;5019956;28;20052;-68
2022/05/01 03:56:39;;;;;;;9.02;5.40;;;;;;;1.49;50.75;102456.44;5018565;28;20056;-68
2022/05/01 03:59:04;;;;;;;9.27;6.55;;;;;;;1.54;50.19;102463.41;5017501;28;20090;-69
2022/05/01 04:01:33;;;;;;;10.85;5.90;;;;;;;1.60;50.50;102468.72;4998782;28;20064;-69
2022/05/01 04:03:58;;;;;;;9.77;6.15;;;;;;;1.58;50.57;102475.53;5001078;28;20056;-69
2022/05/01 04:06:24;;;;;;;8.73;5.88;;;;;;;1.59;50.30;102459.22;5019601;28;20103;-69
2022/05/01 04:08:50;;;;;;;9.10;5.63;;;;;;;1.56;50.26;102469.47;5018606;28;20072;-69
2022/05/01 04:11:15;;;;;;;8.48;5.45;;;;;;;1.56;50.28;102477.22;5018976;28;20140;-70
2022/05/01 04:13:41;;;;;;;10.13;6.97;;;;;;;1.56;50.29;102469.47;5019340;28;20029;-69
2022/05/01 04:16:07;;;;;;;11.68;5.93;;;;;;;1.43;50.30;102466.59;5016853;28;20091;-69
2022/05/01 04:18:32;;;;;;;9.50;5.53;;;;;;;1.29;50.51;102460.22;5002297;28;20025;-69
2022/05/01 04:20:58;;;;;;;10.77;5.65;;;;;;;1.44;50.46;102458.06;4999557;28;20045;-69
2022/05/01 04:23:24;;;;;;;9.00;5.80;;;;;;;1.60;50.21;102461.00;5019316;28;20029;-71
2022/05/01 04:25:50;;;;;;;7.00;5.00;;;;;;;1.62;49.82;102461.91;5017806;28;20048;-70
2022/05/01 04:28:16;;;;;;;6.25;4.88;;;;;;;1.61;49.96;102470.44;5020025;28;20033;-70
2022/05/01 04:30:43;;;;;;;9.05;5.10;;;;;;;1.52;50.03;102471.97;5018554;28;20065;-69
2022/05/01 04:33:10;;;;;;;6.22;4.72;;;;;;;1.55;50.26;102472.88;4998450;28;20318;-67
2022/05/01 04:35:37;;;;;;;9.98;5.72;;;;;;;1.60;50.18;102474.72;5019150;28;20120;-66
2022/05/01 04:38:08;;;;;;;6.95;4.93;;;;;;;1.55;49.80;102463.47;5016558;28;20445;-67
2022/05/01 04:40:38;;;;;;;7.40;4.13;;;;;;;1.49;50.16;102461.59;4998834;28;20111;-67
2022/05/01 04:43:08;;;;;;;8.20;5.53;;;;;;;1.50;49.75;102462.47;5016727;28;20025;-67
2022/05/01 04:45:34;;;;;;;9.63;5.63;;;;;;;1.49;50.17;102463.31;5018797;28;20321;-67
2022/05/01 04:48:01;;;;;;;8.70;5.22;;;;;;;1.48;49.32;102469.28;5016887;28;20544;-67
2022/05/01 04:50:27;;;;;;;8.82;5.03;;;;;;;1.57;50.22;102464.34;4994046;28;20037;-68
2022/05/01 04:52:53;;;;;;;8.15;5.30;;;;;;;1.65;49.78;102467.09;5016771;28;20038;-68
2022/05/01 04:55:18;;;;;;;9.50;5.53;;;;;;;1.68;49.81;102469.75;4999873;28;20041;-69
2022/05/01 04:57:44;;;;;;;11.85;6.30;;;;;;;1.80;49.83;102467.47;5018737;28;20137;-66
2022/05/01 05:00:10;;;;;;;7.55;5.65;;;;;;;1.94;49.82;102463.47;5017416;28;20158;-67
2022/05/01 05:02:41;;;;;;;9.55;6.40;;;;;;;2.72;49.74;102469.31;5019377;28;20025;-66
2022/05/01 05:05:09;;;;;;;9.43;6.10;;;;;;;4.18;47.94;102462.91;5015903;28;20049;-69
2022/05/01 05:07:36;;;;;;;8.93;6.05;;;;;;;4.79;44.89;102471.38;4992005;28;20041;-68
2022/05/01 05:10:02;;;;;;;8.85;5.45;;;;;;;5.33;42.44;102465.81;4997888;28;20057;-67
2022/05/01 05:12:28;;;;;;;8.50;5.40;;;;;;;5.70;41.55;102466.91;4999827;28;20091;-66
2022/05/01 05:14:58;;;;;;;9.90;5.88;;;;;;;5.70;41.91;102472.09;5015237;28;20053;-68
2022/05/01 05:17:23;;;;;;;5.07;4.57;;;;;;;5.97;43.55;102466.22;5001201;28;20061;-68
2022/05/01 05:19:49;;;;;;;5.35;4.80;;;;;;;6.68;42.73;102471.66;5016635;28;20593;-69
2022/05/01 05:22:15;;;;;;;5.85;4.68;;;;;;;7.95;41.10;102468.13;5001519;28;20492;-68
2022/05/01 05:24:41;;;;;;;7.43;4.93;;;;;;;9.13;37.14;102463.97;4997609;28;20052;-68
2022/05/01 05:27:07;;;;;;;6.18;5.50;;;;;;;10.33;33.62;102465.31;5002307;28;20039;-68
2022/05/01 05:29:33;;;;;;;8.27;5.57;;;;;;;11.34;33.20;102468.97;4996720;28;20119;-67
2022/05/01 05:31:59;;;;;;;8.68;6.18;;;;;;;12.13;31.39;102463.09;5016870;28;20265;-67
2022/05/01 05:34:25;;;;;;;6.68;6.00;;;;;;;12.51;30.03;102464.00;5017496;28;20111;-69
2022/05/01 05:36:51;;;;;;;10.27;5.80;;;;;;;12.64;32.09;102470.69;5017229;28;20345;-67
2022/05/01 05:39:17;;;;;;;10.32;6.50;;;;;;;13.18;28.71;102461.53;5000170;28;20537;-72
2022/05/01 05:41:42;;;;;;;9.00;6.07;;;;;;;13.51;30.67;102466.78;5000834;28;20052;-71
2022/05/01 05:44:08;;;;;;;8.55;5.25;;;;;;;14.93;27.17;102463.47;4999555;28;20033;-67
2022/05/01 05:46:34;;;;;;;5.50;4.95;;;;;;;16.15;25.77;102473.22;5016946;28;20421;-67
2022/05/01 05:49:00;;;;;;;3.75;3.38;;;;;;;17.09;24.62;102477.41;5015294;28;20037;-70
2022/05/01 05:51:26;;;;;;;4.55;3.92;;;;;;;18.26;24.54;102470.44;4981324;28;20448;-69
2022/05/01 05:53:52;;;;;;;3.72;3.42;;;;;;;19.39;22.80;102471.03;4998358;28;20083;-69
2022/05/01 05:56:19;;;;;;;4.10;3.67;;;;;;;20.01;20.42;102461.50;4999567;28;20045;-69
2022/05/01 05:58:44;;;;;;;3.20;2.97;;;;;;;19.67;21.62;102463.34;5002982;28;20037;-68
2022/05/01 06:01:10;;;;;;;4.05;3.75;;;;;;;19.80;22.58;102475.97;5000000;28;20681;-68
2022/05/01 06:03:36;;;;;;;6.95;4.60;;;;;;;20.61;21.53;102471.44;5021408;28;20470;-68
2022/05/01 06:06:06;;;;;;;9.07;7.10;;;;;;;21.10;19.79;102473.06;5003001;28;20076;-67
2022/05/01 06:08:35;;;;;;;11.35;5.22;;;;;;;21.30;20.96;102472.69;5022898;28;20083;-68
2022/05/01 06:11:02;;;;;;;7.45;3.92;;;;;;;21.32;20.31;102475.28;4987936;28;20329;-69
2022/05/01 06:13:27;;;;;;;5.05;3.65;;;;;;;21.82;19.82;102473.97;4998840;28;20036;-68
2022/05/01 06:15:53;;;;;;;6.68;4.20;;;;;;;22.37;18.98;102470.44;5018995;28;20143;-68
2022/05/01 06:18:18;;;;;;;4.53;3.33;;;;;;;21.70;19.94;102472.94;4989087;28;20353;-69
2022/05/01 06:20:44;;;;;;;5.10;3.30;;;;;;;22.10;20.30;102475.78;5003273;28;20037;-68
2022/05/01 06:23:09;;;;;;;5.20;3.47;;;;;;;21.84;19.56;102473.88;5018484;28;20037;-69
2022/05/01 06:25:36;;;;;;;6.68;3.75;;;;;;;22.29;18.65;102475.44;4998343;28;20483;-68
2022/05/01 06:28:02;;;;;;;3.92;2.88;;;;;;;22.47;19.39;102476.06;4999905;28;20037;-70
2022/05/01 06:30:28;;;;;;;3.25;2.90;;;;;;;22.51;19.81;102474.03;5020945;28;20037;-68
2022/05/01 06:32:54;;;;;;;5.65;3.47;;;;;;;23.15;18.82;102482.19;5020434;28;20029;-68
2022/05/01 06:35:20;;;;;;;3.17;2.30;;;;;;;23.59;18.71;102478.28;5004352;28;20214;-68
2022/05/01 06:37:45;;;;;;;3.40;3.10;;;;;;;23.77;17.20;102484.97;5020514;28;20026;-70
2022/05/01 06:40:11;;;;;;;3.60;2.38;;;;;;;23.88;18.17;102478.03;5001734;28;20071;-69
2022/05/01 06:42:37;;;;;;;4.57;2.65;;;;;;;22.89;19.28;102483.97;4986391;28;20029;-69
2022/05/01 06:45:04;;;;;;;2.97;2.53;;;;;;;22.85;18.66;102480.66;4985765;28;20364;-69
2022/05/01 06:47:30;;;;;;;3.50;2.33;;;;;;;22.04;20.43;102481.44;5003856;28;20037;-68
2022/05/01 06:49:55;;;;;;;1.83;0.50;;;;;;;19.32;22.61;102489.03;5019417;28;20050;-68
2022/05/01 06:52:23;;;;;;;4.63;0.50;;;;;;;16.25;25.55;102477.22;5024027;28;20029;-69
2022/05/01 06:54:54;;;;;;;3.25;0.52;;;;;;;14.26;30.34;102490.97;5019727;28;20041;-71
2022/05/01 06:57:21;;;;;;;4.57;1.10;;;;;;;13.24;31.71;102490.25;5023490;28;20067;-74
2022/05/01 06:59:46;;;;;;;4.60;1.40;;;;;;;12.53;31.86;102485.81;5022114;28;20033;-73
2022/05/01 07:02:13;;;;;;;1.23;0.90;;;;;;;12.45;32.18;102490.38;5003501;28;20582;-74
2022/05/01 07:04:39;;;;;;;2.58;1.00;;;;;;;12.36;32.29;102495.84;5003141;28;20041;-73
2022/05/01 07:07:05;;;;;;;3.90;1.30;;;;;;;12.61;31.12;102493.53;5002656;28;20029;-73
2022/05/01 07:09:30;;;;;;;3.50;0.90;;;;;;;12.24;33.08;102497.78;5004541;28;20102;-73
2022/05/01 07:11:57;;;;;;;2.85;1.25;;;;;;;12.74;32.91;102497.63;5002702;28;20129;-73
2022/05/01 07:14:23;;;;;;;2.65;1.38;;;;;;;13.01;32.61;102500.47;5023033;28;20040;-73
2022/05/01 07:16:48;;;;;;;5.60;1.17;;;;;;;12.84;32.09;102490.38;5021521;28;20406;-70
2022/05/01 07:19:14;;;;;;;2.45;1.25;;;;;;;13.05;30.94;102487.25;5020295;28;20036;-69
2022/05/01 07:21:40;;;;;;;3.95;1.40;;;;;;;13.87;31.20;102487.72;4986295;28;20506;-70
2022/05/01 07:24:06;;;;;;;1.95;1.10;;;;;;;16.03;28.10;102486.88;5002511;28;20608;-71
2022/05/01 07:26:33;;;;;;;1.80;0.90;;;;;;;18.56;23.80;102483.13;5020301;28;20445;-72
2022/05/01 07:29:03;;;;;;;3.63;0.93;;;;;;;19.26;22.85;102492.88;4987100;28;20397;-72
2022/05/01 07:31:29;;;;;;;2.65;0.88;;;;;;;20.51;20.92;102480.91;5021517;28;20529;-71
2022/05/01 07:33:55;;;;;;;2.78;0.73;;;;;;;20.52;20.65;102482.59;5001492;28;20059;-71
2022/05/01 07:36:20;;;;;;;2.45;1.25;;;;;;;19.26;21.65;102492.88;5020207;28;20041;-70
2022/05/01 07:38:48;;;;;;;2.67;1.65;;;;;;;18.04;22.84;102487.28;5020572;28;20260;-71
2022/05/01 07:41:16;;;;;;;1.65;0.73;;;;;;;17.53;24.06;102487.88;5018727;28;20078;-72
2022/05/01 07:43:43;;;;;;;2.85;0.95;;;;;;;16.00;25.56;102486.09;5002159;28;20033;-72
2022/05/01 07:46:08;;;;;;;2.63;0.60;;;;;;;13.62;28.41;102491.03;4996611;28;20037;-72
2022/05/01 07:48:34;;;;;;;4.05;0.95;;;;;;;12.84;30.44;102491.22;5020510;28;20966;-73
2022/05/01 07:51:00;;;;;;;3.78;1.27;;;;;;;12.29;32.21;102490.72;5018531;28;20084;-73
2022/05/01 07:53:25;;;;;;;3.63;1.10;;;;;;;12.31;32.26;102492.41;4986106;28;20053;-73
2022/05/01 07:55:51;;;;;;;3.60;0.90;;;;;;;13.26;30.73;102485.81;4999497;28;20393;-74
2022/05/01 07:58:19;;;;;;;2.35;1.25;;;;;;;15.53;29.14;102482.53;5001468;28;20391;-73
2022/05/01 08:00:45;;;;;;;2.83;1.10;;;;;;;18.04;23.75;102476.72;5002336;28;20049;-74
2022/05/01 08:05:55;;;;;;;1.55;0.70;;;;;;;20.91;20.38;102478.63;5019767;28;20057;-75
2022/05/01 08:08:20;;;;;;;1.48;0.75;;;;;;;21.33;19.44;102483.16;5001732;28;20036;-74
2022/05/01 08:10:46;;;;;;;3.75;0.50;;;;;;;20.03;20.72;102480.00;5000760;28;20105;-73
2022/05/01 08:13:11;;;;;;;2.55;0.95;;;;;;;19.14;21.58;102490.84;4997460;28;20106;-74
2022/05/01 08:15:37;;;;;;;1.67;0.70;;;;;;;16.55;24.80;102488.34;5018164;28;20041;-74
2022/05/01 08:23:31;;;;;;;3.15;0.65;;;;;;;12.61;29.81;102491.75;5018980;28;20270;-73
2022/05/01 08:26:02;;;;;;;3.42;0.70;;;;;;;12.84;31.23;102488.59;5001949;28;20137;-74
2022/05/01 08:28:30;;;;;;;2.63;0.63;;;;;;;13.46;28.96;102493.19;5001003;28;20809;-73
2022/05/01 08:30:55;;;;;;;1.90;1.10;;;;;;;13.19;30.14;102488.66;5014772;28;20136;-73
2022/05/01 08:33:21;;;;;;;1.60;0.40;;;;;;;14.15;29.14;102485.16;5003531;28;20025;-74
2022/05/01 08:35:47;;;;;;;1.10;0.50;;;;;;;16.55;25.20;102479.56;4983979;28;20041;-74
2022/05/01 08:38:12;;;;;;;0.60;0.40;;;;;;;18.73;22.74;102474.38;5017785;28;20028;-74
2022/05/01 08:40:38;;;;;;;0.85;0.30;;;;;;;19.05;21.64;102476.28;5017333;28;20117;-74
2022/05/01 08:43:05;;;;;;;1.52;0.55;;;;;;;16.65;23.53;102480.94;5018235;28;20030;-74
2022/05/01 08:45:51;;;;;;;2.35;0.38;;;;;;;15.99;24.18;102476.44;5018610;28;20110;-74
2022/05/01 08:48:25;;;;;;;1.30;0.52;;;;;;;13.52;28.44;102485.16;4987505;28;20033;-74
2022/05/01 08:50:52;;;;;;;4.28;0.80;;;;;;;12.58;30.58;102486.59;5014753;28;20051;-73
2022/05/01 08:53:18;;;;;;;1.20;0.50;;;;;;;11.54;32.39;102489.56;5017496;28;20044;-74
2022/05/01 08:55:44;;;;;;;1.70;0.57;;;;;;;10.90;33.53;102491.50;5014422;28;20045;-74
2022/05/01 08:58:10;;;;;;;2.45;1.55;;;;;;;10.51;34.83;102492.94;5015954;28;20111;-74
2022/05/01 09:00:37;;;;;;;1.75;0.55;;;;;;;10.32;34.85;102487.09;4995626;28;20033;-75
2022/05/01 09:03:04;;;;;;;1.52;0.63;;;;;;;10.31;35.33;102488.84;5013858;28;20025;-74
2022/05/01 09:05:31;;;;;;;2.65;0.55;;;;;;;9.87;35.08;102490.25;5015760;28;20092;-73
2022/05/01 09:07:57;;;;;;;1.95;0.20;;;;;;;9.97;34.85;102493.63;4995143;28;20551;-73
2022/05/01 09:10:26;;;;;;;2.00;0.73;;;;;;;10.04;34.92;102489.19;4995609;28;20045;-73
2022/05/01 09:12:53;;;;;;;1.25;0.30;;;;;;;10.20;34.75;102488.97;4996779;28;20039;-73
2022/05/01 09:15:28;;;;;;;4.22;0.55;;;;;;;9.55;36.49;102490.56;5015540;28;20386;-73
2022/05/01 09:18:14;;;;;;;4.32;0.70;;;;;;;9.72;36.38;102493.88;4977153;28;20116;-73
2022/05/01 09:21:02;;;;;;;1.38;0.50;;;;;;;10.10;35.90;102492.59;5014516;28;20121;-74
2022/05/01 09:23:39;;;;;;;3.72;0.70;;;;;;;10.13;35.35;102492.56;5017041;28;20026;-73
2022/05/01 09:26:06;;;;;;;1.98;0.63;;;;;;;10.32;34.68;102498.41;5013693;28;20541;-73
2022/05/01 09:28:32;;;;;;;3.38;0.68;;;;;;;10.78;34.01;102497.75;5016316;28;20128;-74
2022/05/01 09:30:57;;;;;;;2.17;0.45;;;;;;;11.10;33.92;102504.25;4979978;28;20144;-73
2022/05/01 09:33:23;;;;;;;7.93;0.95;;;;;;;11.48;32.55;102500.13;4997308;28;20033;-73
2022/05/01 09:35:49;;;;;;;1.70;0.65;;;;;;;12.02;31.54;102493.91;5013113;28;20056;-73
2022/05/01 09:38:26;;;;;;;2.53;0.45;;;;;;;12.64;31.30;102491.66;4999448;28;20029;-73
2022/05/01 09:41:01;;;;;;;1.42;0.40;;;;;;;14.10;29.34;102489.72;4978099;28;20069;-74
2022/05/01 09:43:36;;;;;;;2.65;0.50;;;;;;;14.95;27.04;102493.25;5014337;28;20064;-73
2022/05/01 09:46:17;;;;;;;2.58;0.68;;;;;;;15.24;27.03;102486.16;4994634;28;20564;-74
2022/05/01 09:48:58;;;;;;;3.25;0.85;;;;;;;15.34;27.69;102477.88;4995687;28;20041;-74
2022/05/01 09:51:25;;;;;;;1.23;0.60;;;;;;;15.89;26.53;102479.47;4988627;28;20124;-73
2022/05/01 09:53:50;;;;;;;0.88;0.38;;;;;;;15.68;25.93;102471.41;4998029;28;20107;-75
2022/05/01 09:56:16;;;;;;;1.60;0.73;;;;;;;15.20;27.68;102469.56;4996163;28;20477;-74
2022/05/01 09:58:43;;;;;;;1.75;0.57;;;;;;;15.08;27.52;102470.88;5015645;28;20084;-75
2022/05/01 10:01:14;;;;;;;1.08;0.50;;;;;;;15.40;26.23;102471.56;4993970;28;20050;-75
2022/05/01 10:03:42;;;;;;;1.25;0.32;;;;;;;14.90;26.45;102474.09;5016525;28;20132;-74
2022/05/01 10:06:11;;;;;;;5.32;0.55;;;;;;;14.93;26.93;102476.63;5012326;28;20668;-74
2022/05/01 10:08:38;;;;;;;1.80;0.50;;;;;;;14.63;27.31;102473.22;4999046;28;20041;-73
2022/05/01 10:11:05;;;;;;;1.77;0.50;;;;;;;13.61;28.75;102465.69;4994799;28;20143;-73
2022/05/01 10:13:32;;;;;;;1.88;0.50;;;;;;;13.40;28.69;102464.44;5015164;28;20029;-73
2022/05/01 10:15:59;;;;;;;4.22;0.52;;;;;;;13.32;29.74;102469.06;4979795;28;20052;-73
2022/05/01 10:18:25;;;;;;;1.98;0.40;;;;;;;13.72;29.10;102468.88;5016119;28;20047;-73
2022/05/01 10:20:51;;;;;;;1.67;0.63;;;;;;;13.83;28.72;102460.69;5014632;28;20042;-72
2022/05/01 10:23:17;;;;;;;2.38;0.50;;;;;;;13.94;28.60;102463.88;5015525;28;20472;-73
2022/05/01 10:26:20;;;;;;;2.22;1.10;;;;;;;13.75;28.54;102462.66;4995472;28;20115;-73
2022/05/01 10:29:32;;;;;;;1.70;0.90;;;;;;;13.82;28.75;102458.94;5014150;28;20063;-73
2022/05/01 10:32:22;;;;;;;4.60;0.60;;;;;;;13.84;29.17;102465.03;4930463;28;20118;-73
2022/05/01 10:35:15;;;;;;;3.15;0.55;;;;;;;13.31;28.88;102456.81;4993228;28;20560;-73
2022/05/01 10:38:19;;;;;;;3.58;0.50;;;;;;;14.91;28.21;102455.63;4997080;28;20593;-75
2022/05/01 10:40:54;;;;;;;3.40;0.50;;;;;;;15.86;25.76;102454.03;4995734;28;20076;-74
2022/05/01 10:43:28;;;;;;;2.40;0.30;;;;;;;16.21;24.53;102449.25;4997739;28;20088;-74
2022/05/01 10:45:56;;;;;;;3.13;0.77;;;;;;;16.12;24.69;102450.47;4998430;28;20160;-73
2022/05/01 10:48:36;;;;;;;2.50;0.60;;;;;;;15.68;25.10;102441.56;4999752;28;20528;-74
2022/05/01 10:51:39;;;;;;;1.08;0.52;;;;;;;16.16;25.06;102444.16;4999617;28;20592;-73
2022/05/01 10:54:10;;;;;;;1.85;0.52;;;;;;;16.68;24.49;102438.56;5020450;28;20117;-73
2022/05/01 10:56:47;;;;;;;2.35;0.45;;;;;;;16.26;23.40;102447.28;5018528;28;20045;-74
2022/05/01 10:59:42;;;;;;;1.38;0.73;;;;;;;16.65;23.50;102433.41;5019934;28;20048;-74
2022/05/01 11:02:38;;;;;;;0.85;0.30;;;;;;;17.43;22.23;102421.31;4988980;28;20132;-74
2022/05/01 11:05:07;;;;;;;1.05;0.60;;;;;;;16.64;23.08;102426.41;5016231;28;20085;-75
2022/05/01 11:07:35;;;;;;;2.20;0.63;;;;;;;17.13;22.86;102426.16;5002062;28;20040;-74
2022/05/01 11:10:03;;;;;;;2.20;0.60;;;;;;;17.24;23.42;102426.53;4999424;28;20489;-74
2022/05/01 11:12:34;;;;;;;20.60;11.57;;;;;;;16.32;24.68;102430.38;5017281;28;20049;-74
2022/05/01 11:15:05;;;;;;;2.60;1.88;;;;;;;15.14;26.46;102439.03;5017837;28;20091;-75
2022/05/01 11:17:37;;;;;;;2.00;0.87;;;;;;;14.71;26.94;102435.22;4984863;28;20037;-75
2022/05/01 11:20:09;;;;;;;1.80;0.70;;;;;;;14.42;27.13;102432.66;4998842;28;20057;-74
2022/05/01 11:22:35;;;;;;;3.60;1.83;;;;;;;13.48;28.50;102433.59;5001354;28;20274;-74
2022/05/01 11:25:00;;;;;;;9.95;4.00;;;;;;;13.32;29.36;102433.16;5007461;28;20464;-73
2022/05/01 11:27:26;;;;;;;7.72;5.40;;;;;;;12.50;30.85;102430.81;4992580;28;20037;-73
2022/05/01 11:30:07;;;;;;;5.97;1.60;;;;;;;12.89;30.31;102433.38;5016849;28;20439;-74
2022/05/01 11:32:46;;;;;;;1.92;1.02;;;;;;;12.80;30.01;102433.63;5018822;28;20033;-73
2022/05/01 11:35:13;;;;;;;3.92;2.97;;;;;;;12.61;30.74;102431.41;5016512;28;20091;-74
2022/05/01 11:38:01;;;;;;;1.00;0.70;;;;;;;12.47;30.57;102430.91;5017767;28;20119;-74
2022/05/01 11:40:28;;;;;;;3.03;0.82;;;;;;;12.19;30.90;102436.75;5015809;28;20049;-73
2022/05/01 11:43:17;;;;;;;3.78;2.03;;;;;;;12.29;31.24;102427.78;4994631;28;20446;-73
2022/05/01 11:45:45;;;;;;;2.22;1.13;;;;;;;11.74;32.61;102436.78;4997403;28;20434;-73
2022/05/01 11:48:19;;;;;;;1.70;0.47;;;;;;;11.86;31.93;102431.31;4981670;28;20064;-73
2022/05/01 11:50:51;;;;;;;1.05;0.90;;;;;;;11.90;31.78;102433.91;4997805;28;20077;-73
2022/05/01 11:53:22;;;;;;;1.38;0.40;;;;;;;12.17;31.94;102433.28;5016901;28;20026;-73